| time (UTC) | temp F | wind direction | speed MPH | gust MPH | rain 1hr in | rain 24hr in | rain mn in | humidity % | barometer mb |
| 20260905231312 | 54 | 67 | 0.0 | 0.0 | 0.00 | 0.11 | 0.00 | 72 | 1100.0 |
| 20260905230313 | 54 | 67 | 0.0 | 0.0 | 0.00 | 0.11 | 0.00 | 72 | 1100.0 |
| 20260905225311 | 54 | 67 | 0.0 | 0.0 | 0.00 | 0.11 | 0.00 | 73 | 1100.0 |
| 20260905224310 | 54 | 67 | 0.0 | 0.0 | 0.00 | 0.11 | 0.00 | 73 | 1100.0 |
| 20260905223310 | 52 | 67 | 0.0 | 0.0 | 0.00 | 0.11 | 0.00 | 77 | 1100.0 |
| 20260905222311 | 52 | 67 | 0.0 | 0.0 | 0.00 | 0.11 | 0.00 | 77 | 1100.0 |
| 20260905221310 | 53 | 67 | 0.0 | 0.0 | 0.00 | 0.11 | 0.00 | 75 | 1100.0 |
| 20260905220312 | 53 | 67 | 0.0 | 0.0 | 0.00 | 0.11 | 0.00 | 75 | 1100.0 |
| 20260905215309 | 55 | 67 | 0.0 | 0.0 | 0.00 | 0.11 | 0.11 | 74 | 1100.0 |
| 20260905214309 | 55 | 67 | 0.0 | 0.0 | 0.00 | 0.11 | 0.11 | 74 | 1100.0 |
| 20260905213311 | 56 | 67 | 0.0 | 0.0 | 0.00 | 0.11 | 0.11 | 76 | 1100.0 |
| 20260905212314 | 56 | 67 | 0.0 | 0.0 | 0.00 | 0.11 | 0.11 | 76 | 1100.0 |
| 20260905211316 | 56 | 67 | 0.0 | 0.0 | 0.00 | 0.11 | 0.11 | 75 | 1100.0 |
| 20260905210316 | 56 | 67 | 0.0 | 0.0 | 0.00 | 0.11 | 0.11 | 75 | 1100.0 |
| 20260905205314 | 57 | 67 | 0.0 | 0.0 | 0.00 | 0.11 | 0.11 | 74 | 1100.0 |
| 20260905204313 | 57 | 67 | 0.0 | 0.0 | 0.00 | 0.11 | 0.11 | 74 | 1100.0 |
| 20260905203313 | 57 | 67 | 0.0 | 0.0 | 0.00 | 0.11 | 0.11 | 75 | 1100.0 |
| 20260905202313 | 57 | 67 | 0.0 | 0.0 | 0.00 | 0.11 | 0.11 | 75 | 1100.0 |
| 20260905201315 | 57 | 67 | 0.0 | 0.0 | 0.00 | 0.11 | 0.11 | 77 | 1100.0 |
| 20260905200313 | 57 | 67 | 0.0 | 0.0 | 0.00 | 0.11 | 0.11 | 77 | 1100.0 |
| 20260905195314 | 57 | 67 | 0.0 | 0.0 | 0.00 | 0.11 | 0.11 | 78 | 1100.0 |
| 20260905194313 | 57 | 67 | 0.0 | 0.0 | 0.00 | 0.11 | 0.11 | 78 | 1100.0 |
| 20260905193313 | 57 | 67 | 0.0 | 0.0 | 0.00 | 0.11 | 0.11 | 76 | 1100.0 |
| 20260905192314 | 57 | 67 | 0.0 | 0.0 | 0.00 | 0.11 | 0.11 | 76 | 1100.0 |
| 20260905191312 | 57 | 67 | 0.0 | 0.0 | 0.00 | 0.11 | 0.11 | 73 | 1100.0 |
| 20260905190312 | 57 | 67 | 0.0 | 0.0 | 0.00 | 0.11 | 0.11 | 73 | 1100.0 |
| 20260905185312 | 59 | 67 | 0.0 | 0.0 | 0.00 | 0.11 | 0.11 | 72 | 1100.0 |
| 20260905184313 | 59 | 67 | 0.0 | 0.0 | 0.00 | 0.11 | 0.11 | 72 | 1100.0 |
| 20260905183312 | 59 | 67 | 0.0 | 0.0 | 0.00 | 0.11 | 0.11 | 71 | 1100.0 |
| 20260905182311 | 59 | 67 | 0.0 | 0.0 | 0.00 | 0.11 | 0.11 | 71 | 1100.0 |
| 20260905181311 | 60 | 67 | 0.0 | 0.0 | 0.00 | 0.11 | 0.11 | 68 | 1100.0 |
| 20260905180311 | 60 | 67 | 0.0 | 0.0 | 0.00 | 0.11 | 0.11 | 68 | 1100.0 |
| 20260905175311 | 61 | 135 | 1.0 | 0.0 | 0.00 | 0.11 | 0.11 | 66 | 1100.0 |
| 20260905174313 | 61 | 135 | 1.0 | 0.0 | 0.00 | 0.11 | 0.11 | 66 | 1100.0 |
| 20260905173311 | 62 | 135 | 2.0 | 3.0 | 0.00 | 0.11 | 0.11 | 65 | 1100.0 |
| 20260905172312 | 62 | 135 | 2.0 | 3.0 | 0.00 | 0.11 | 0.11 | 65 | 1100.0 |
| 20260905171310 | 63 | 135 | 2.0 | 2.0 | 0.00 | 0.11 | 0.11 | 63 | 1100.0 |
| 20260905170310 | 63 | 135 | 2.0 | 2.0 | 0.00 | 0.11 | 0.11 | 63 | 1100.0 |
| 20260905165310 | 64 | 135 | 2.0 | 6.0 | 0.00 | 0.11 | 0.11 | 61 | 1100.0 |
| 20260905164310 | 64 | 135 | 2.0 | 6.0 | 0.00 | 0.11 | 0.11 | 61 | 1100.0 |
| 20260905163310 | 65 | 90 | 3.0 | 8.0 | 0.00 | 0.11 | 0.11 | 59 | 1100.0 |
| 20260905162311 | 65 | 90 | 3.0 | 8.0 | 0.00 | 0.11 | 0.11 | 59 | 1100.0 |
| 20260905161311 | 65 | 90 | 3.0 | 2.0 | 0.00 | 0.11 | 0.11 | 59 | 1100.0 |
| 20260905160312 | 65 | 90 | 3.0 | 2.0 | 0.00 | 0.11 | 0.11 | 59 | 1100.0 |
| 20260905155311 | 67 | 135 | 3.0 | 4.0 | 0.00 | 0.11 | 0.11 | 55 | 1100.0 |
| 20260905154316 | 67 | 135 | 3.0 | 4.0 | 0.00 | 0.11 | 0.11 | 55 | 1100.0 |
| 20260905153315 | 70 | 67 | 4.0 | 6.0 | 0.00 | 0.11 | 0.11 | 53 | 1100.0 |
| 20260905152315 | 70 | 67 | 4.0 | 6.0 | 0.00 | 0.11 | 0.11 | 53 | 1100.0 |
| 20260905151314 | 72 | 45 | 2.0 | 3.0 | 0.00 | 0.11 | 0.11 | 53 | 1100.0 |
| 20260905150314 | 72 | 45 | 2.0 | 3.0 | 0.00 | 0.11 | 0.11 | 53 | 1100.0 |
| 20260905145313 | 68 | 225 | 2.0 | 3.0 | 0.00 | 0.11 | 0.11 | 58 | 1100.0 |
| 20260905144315 | 68 | 225 | 2.0 | 3.0 | 0.00 | 0.11 | 0.11 | 58 | 1100.0 |
| 20260905143313 | 68 | 90 | 2.0 | 4.0 | 0.00 | 0.11 | 0.11 | 59 | 1100.0 |
| 20260905142313 | 68 | 90 | 2.0 | 4.0 | 0.00 | 0.11 | 0.11 | 59 | 1100.0 |
| 20260905141313 | 67 | 90 | 3.0 | 4.0 | 0.00 | 0.11 | 0.11 | 59 | 1100.0 |
| 20260905140314 | 67 | 90 | 3.0 | 4.0 | 0.00 | 0.11 | 0.11 | 59 | 1100.0 |
| 20260905135313 | 65 | 90 | 3.0 | 3.0 | 0.00 | 0.11 | 0.11 | 63 | 1100.0 |
| 20260905134313 | 65 | 90 | 3.0 | 3.0 | 0.00 | 0.11 | 0.11 | 63 | 1100.0 |
| 20260905133314 | 67 | 157 | 3.0 | 6.0 | 0.00 | 0.11 | 0.11 | 62 | 1100.0 |
| 20260905132312 | 67 | 157 | 3.0 | 6.0 | 0.00 | 0.11 | 0.11 | 62 | 1100.0 |
| 20260905131312 | 67 | 67 | 4.0 | 6.0 | 0.00 | 0.11 | 0.11 | 61 | 1100.0 |
| 20260905130312 | 67 | 67 | 4.0 | 6.0 | 0.00 | 0.11 | 0.11 | 61 | 1100.0 |
| 20260905125312 | 67 | 180 | 3.0 | 3.0 | 0.00 | 0.11 | 0.11 | 62 | 1100.0 |
| 20260905124311 | 67 | 180 | 3.0 | 3.0 | 0.00 | 0.11 | 0.11 | 62 | 1100.0 |
| 20260905122311 | 66 | 67 | 3.0 | 4.0 | 0.00 | 0.11 | 0.11 | 65 | 1100.0 |
| 20260905121313 | 64 | 270 | 3.0 | 3.0 | 0.00 | 0.11 | 0.11 | 67 | 1100.0 |
| 20260905120311 | 64 | 270 | 3.0 | 3.0 | 0.00 | 0.11 | 0.11 | 67 | 1100.0 |
| 20260905115313 | 64 | 22 | 3.0 | 5.0 | 0.00 | 0.11 | 0.11 | 70 | 1100.0 |
| 20260905114312 | 64 | 22 | 3.0 | 5.0 | 0.00 | 0.11 | 0.11 | 70 | 1100.0 |
| 20260905113311 | 64 | 247 | 3.0 | 3.0 | 0.00 | 0.11 | 0.11 | 72 | 1100.0 |
| 20260905112310 | 64 | 247 | 3.0 | 3.0 | 0.00 | 0.11 | 0.11 | 72 | 1100.0 |
| 20260905111310 | 62 | 157 | 3.0 | 3.0 | 0.00 | 0.11 | 0.11 | 73 | 1100.0 |
| 20260905110310 | 62 | 157 | 3.0 | 3.0 | 0.00 | 0.11 | 0.11 | 73 | 1100.0 |
| 20260905105311 | 63 | 337 | 4.0 | 9.0 | 0.00 | 0.11 | 0.11 | 73 | 1100.0 |
| 20260905104310 | 63 | 337 | 4.0 | 9.0 | 0.00 | 0.11 | 0.11 | 73 | 1100.0 |
| 20260905103311 | 63 | 157 | 4.0 | 4.0 | 0.00 | 0.11 | 0.11 | 74 | 1100.0 |
| 20260905102310 | 63 | 157 | 4.0 | 4.0 | 0.00 | 0.11 | 0.11 | 74 | 1100.0 |
| 20260905101311 | 62 | 90 | 4.0 | 6.0 | 0.00 | 0.11 | 0.11 | 77 | 1100.0 |
| 20260905100311 | 62 | 90 | 4.0 | 6.0 | 0.00 | 0.11 | 0.11 | 77 | 1100.0 |
| 20260905095314 | 61 | 337 | 4.0 | 4.0 | 0.00 | 0.11 | 0.11 | 79 | 1100.0 |
| 20260905094315 | 61 | 337 | 4.0 | 4.0 | 0.00 | 0.11 | 0.11 | 79 | 1100.0 |
| 20260905093314 | 58 | 360 | 3.0 | 0.0 | 0.00 | 0.11 | 0.11 | 83 | 1100.0 |
| 20260905092315 | 58 | 360 | 3.0 | 0.0 | 0.00 | 0.11 | 0.11 | 83 | 1100.0 |
| 20260905091315 | 57 | 202 | 5.0 | 3.0 | 0.03 | 0.11 | 0.11 | 84 | 1100.0 |
| 20260905090315 | 57 | 202 | 5.0 | 3.0 | 0.03 | 0.11 | 0.11 | 84 | 1100.0 |
| 20260905085313 | 57 | 360 | 3.0 | 3.0 | 0.03 | 0.11 | 0.11 | 84 | 1100.0 |
| 20260905084314 | 57 | 360 | 3.0 | 3.0 | 0.03 | 0.11 | 0.11 | 84 | 1100.0 |
| 20260905083313 | 56 | 135 | 3.0 | 2.0 | 0.03 | 0.11 | 0.11 | 86 | 1100.0 |
| 20260905082314 | 56 | 135 | 3.0 | 2.0 | 0.03 | 0.11 | 0.11 | 86 | 1100.0 |
| 20260905081314 | 55 | 45 | 3.0 | 2.0 | 0.00 | 0.08 | 0.08 | 86 | 1100.0 |
| 20260905080312 | 55 | 45 | 3.0 | 2.0 | 0.00 | 0.08 | 0.08 | 86 | 1100.0 |
| 20260905075312 | 54 | 270 | 2.0 | 2.0 | 0.00 | 0.08 | 0.08 | 86 | 1100.0 |
| 20260905074312 | 54 | 270 | 2.0 | 2.0 | 0.00 | 0.08 | 0.08 | 86 | 1100.0 |
| 20260905073312 | 54 | 90 | 1.0 | 1.0 | 0.03 | 0.08 | 0.08 | 85 | 1100.0 |
| 20260905072314 | 54 | 90 | 1.0 | 1.0 | 0.03 | 0.08 | 0.08 | 85 | 1100.0 |
| 20260905071314 | 54 | 135 | 1.0 | 0.0 | 0.03 | 0.08 | 0.08 | 85 | 1100.0 |
| 20260905070313 | 54 | 135 | 1.0 | 0.0 | 0.03 | 0.08 | 0.08 | 85 | 1100.0 |
| 20260905065312 | 54 | 337 | 1.0 | 0.0 | 0.08 | 0.08 | 0.08 | 85 | 1100.0 |
| 20260905063313 | 54 | 202 | 1.0 | 3.0 | 0.05 | 0.05 | 0.05 | 85 | 1100.0 |
| 20260905062313 | 54 | 202 | 1.0 | 3.0 | 0.05 | 0.05 | 0.05 | 85 | 1100.0 |
| 20260905061311 | 54 | 337 | 2.0 | 3.0 | 0.05 | 0.05 | 0.05 | 85 | 1100.0 |
| 20260905060312 | 54 | 337 | 2.0 | 3.0 | 0.05 | 0.05 | 0.05 | 85 | 1100.0 |
| 20260905055312 | 56 | 180 | 1.0 | 3.0 | 0.00 | 0.00 | 0.00 | 82 | 1100.0 |
| 20260905054311 | 56 | 180 | 1.0 | 3.0 | 0.00 | 0.00 | 0.00 | 82 | 1100.0 |
| 20260905053310 | 56 | 180 | 1.0 | 1.0 | 0.00 | 0.00 | 0.00 | 80 | 1100.0 |
| 20260905052310 | 56 | 180 | 1.0 | 1.0 | 0.00 | 0.00 | 0.00 | 80 | 1100.0 |
| 20260905051310 | 56 | 180 | 0.0 | 0.0 | 0.00 | 0.00 | 0.00 | 77 | 1100.0 |
| 20260905050311 | 56 | 180 | 0.0 | 0.0 | 0.00 | 0.00 | 0.00 | 77 | 1100.0 |
| 20260905045310 | 58 | 202 | 2.0 | 1.0 | 0.00 | 0.00 | 0.00 | 74 | 1100.0 |
| 20260905044310 | 58 | 202 | 2.0 | 1.0 | 0.00 | 0.00 | 0.00 | 74 | 1100.0 |
| 20260905043309 | 58 | 247 | 3.0 | 2.0 | 0.00 | 0.00 | 0.00 | 72 | 1100.0 |
| 20260905042311 | 58 | 247 | 3.0 | 2.0 | 0.00 | 0.00 | 0.00 | 72 | 1100.0 |
| 20260905041309 | 59 | 90 | 1.0 | 1.0 | 0.00 | 0.00 | 0.00 | 72 | 1100.0 |
| 20260905040314 | 59 | 90 | 1.0 | 1.0 | 0.00 | 0.00 | 0.00 | 72 | 1100.0 |
| 20260905035314 | 59 | 202 | 2.0 | 2.0 | 0.00 | 0.00 | 0.00 | 71 | 1100.0 |
| 20260905034314 | 59 | 202 | 2.0 | 2.0 | 0.00 | 0.00 | 0.00 | 71 | 1100.0 |
| 20260905033314 | 60 | 247 | 1.0 | 1.0 | 0.00 | 0.00 | 0.00 | 71 | 1100.0 |
| 20260905032315 | 60 | 247 | 1.0 | 1.0 | 0.00 | 0.00 | 0.00 | 71 | 1100.0 |
| 20260905031315 | 61 | 180 | 2.0 | 1.0 | 0.00 | 0.00 | 0.00 | 71 | 1100.0 |
| 20260905030313 | 61 | 180 | 2.0 | 1.0 | 0.00 | 0.00 | 0.00 | 71 | 1100.0 |
| 20260905025315 | 63 | 202 | 5.0 | 3.0 | 0.00 | 0.00 | 0.00 | 69 | 1100.0 |
| 20260905024314 | 63 | 202 | 5.0 | 3.0 | 0.00 | 0.00 | 0.00 | 69 | 1100.0 |
| 20260905023313 | 67 | 202 | 4.0 | 12.0 | 0.00 | 0.00 | 0.00 | 65 | 1100.0 |
| 20260905022312 | 67 | 202 | 4.0 | 12.0 | 0.00 | 0.00 | 0.00 | 65 | 1100.0 |
| 20260905021312 | 68 | 45 | 2.0 | 4.0 | 0.00 | 0.00 | 0.00 | 63 | 1100.0 |
| 20260905020314 | 68 | 45 | 2.0 | 4.0 | 0.00 | 0.00 | 0.00 | 63 | 1100.0 |
| 20260905015314 | 69 | 270 | 2.0 | 3.0 | 0.00 | 0.00 | 0.00 | 62 | 1100.0 |
| 20260905014312 | 69 | 270 | 2.0 | 3.0 | 0.00 | 0.00 | 0.00 | 62 | 1100.0 |
| 20260905013312 | 69 | 202 | 3.0 | 2.0 | 0.00 | 0.00 | 0.00 | 61 | 1100.0 |
| 20260905012313 | 69 | 202 | 3.0 | 2.0 | 0.00 | 0.00 | 0.00 | 61 | 1100.0 |
| 20260905011313 | 69 | 135 | 2.0 | 12.0 | 0.00 | 0.00 | 0.00 | 60 | 1100.0 |
| 20260905010311 | 69 | 135 | 2.0 | 12.0 | 0.00 | 0.00 | 0.00 | 60 | 1100.0 |
| 20260905005311 | 69 | 337 | 2.0 | 3.0 | 0.00 | 0.00 | 0.00 | 60 | 1100.0 |
| 20260905004313 | 69 | 337 | 2.0 | 3.0 | 0.00 | 0.00 | 0.00 | 60 | 1100.0 |
| 20260905003311 | 69 | 90 | 2.0 | 11.0 | 0.00 | 0.00 | 0.00 | 60 | 1100.0 |
| 20260905002313 | 69 | 90 | 2.0 | 11.0 | 0.00 | 0.00 | 0.00 | 60 | 1100.0 |
| 20260905001311 | 69 | 180 | 2.0 | 1.0 | 0.00 | 0.00 | 0.00 | 59 | 1100.0 |
| 20260905000312 | 69 | 180 | 2.0 | 1.0 | 0.00 | 0.00 | 0.00 | 59 | 1100.0 |
| 20260904235310 | 69 | 202 | 2.0 | 2.0 | 0.00 | 0.00 | 0.00 | 58 | 1100.0 |
| 20260904234310 | 69 | 202 | 2.0 | 2.0 | 0.00 | 0.00 | 0.00 | 58 | 1100.0 |
| 20260904233310 | 69 | 135 | 3.0 | 4.0 | 0.00 | 0.00 | 0.00 | 58 | 1100.0 |
| 20260904232310 | 69 | 135 | 3.0 | 4.0 | 0.00 | 0.00 | 0.00 | 58 | 1100.0 |